Barron, Wisconsin
Current Conditions -  °F | °C
As of 6:55 PM on Saturday 22 Nov 2014 (Local Time) from KRPD Reporting Station
Haze Haze  
Wind Chill: 27°   Ceiling: 300
Heat Index: 35°   Visibility: 1mi
Dew Point: 34°   Wind: 9mph
Humidity: 97%   Direction: 150°SSE
Pressure: 29.67"   Gusts: NA
Location:  45.4°N, 91.85°W
Report Text: KRPD 230055Z AUTO 15008KT 1SM BR OVC003 02/01 A2967 RMK AO2 T00150010
Loading
Personal Weather Stations






























Interactive Weather Map New forecast layout! Learn more

10-Day Weather Forecast

Advertisements
Track Severe Weather on mobile